Time;durP1;ratioP1;P1;durP2;ratioP2;P2;SDS_P1;SDS_P2;PMS_P1;PMS_P2;Temp;Humidity;BMP_temperature;BMP_pressure;BME280_temperature;BME280_humidity;BME280_pressure;Samples;Min_cycle;Max_cycle;Signal;HPM_P1;HPM_P2
2024/02/29 00:00:11;;;;;;;3.70;3.20;;;21.20;55.20;;;;;;5052986;28;20171;-69
2024/02/29 00:02:38;;;;;;;3.67;3.37;;;21.20;55.20;;;;;;5052891;28;20426;-70
2024/02/29 00:05:04;;;;;;;3.60;3.30;;;21.20;55.20;;;;;;5052936;28;20412;-70
2024/02/29 00:07:31;;;;;;;3.43;3.10;;;21.20;55.20;;;;;;5051435;28;20445;-70
2024/02/29 00:09:56;;;;;;;4.43;3.73;;;21.20;55.20;;;;;;5053776;28;20413;-70
2024/02/29 00:12:22;;;;;;;3.90;3.10;;;21.20;55.20;;;;;;5052615;28;20828;-70
2024/02/29 00:14:48;;;;;;;4.23;3.23;;;21.20;55.20;;;;;;5052717;28;20182;-69
2024/02/29 00:17:13;;;;;;;3.63;3.33;;;21.20;55.30;;;;;;5052262;28;20249;-71
2024/02/29 00:19:39;;;;;;;3.30;3.00;;;21.20;55.20;;;;;;5052011;28;20951;-70
2024/02/29 00:22:05;;;;;;;4.17;3.50;;;21.20;55.20;;;;;;5051985;28;20285;-70
2024/02/29 00:24:31;;;;;;;3.83;3.30;;;21.20;55.20;;;;;;5051763;28;20613;-71
2024/02/29 00:26:56;;;;;;;3.53;3.20;;;21.20;55.20;;;;;;5051898;28;20500;-70
2024/02/29 00:29:27;;;;;;;3.83;3.53;;;21.20;55.20;;;;;;5051627;28;20642;-70
2024/02/29 00:31:53;;;;;;;3.50;3.20;;;21.20;55.20;;;;;;5051872;28;20183;-69
2024/02/29 00:34:19;;;;;;;3.60;3.30;;;21.10;55.10;;;;;;5051576;28;20433;-70
2024/02/29 00:36:44;;;;;;;3.80;3.40;;;21.10;55.10;;;;;;5051580;28;20991;-70
2024/02/29 00:39:10;;;;;;;4.10;3.70;;;21.10;55.10;;;;;;5051475;28;20174;-71
2024/02/29 00:41:36;;;;;;;4.43;3.37;;;21.10;55.20;;;;;;5051366;28;20174;-69
2024/02/29 00:44:02;;;;;;;4.20;3.53;;;21.10;55.20;;;;;;5051226;28;20430;-70
2024/02/29 00:46:27;;;;;;;3.70;3.23;;;21.10;55.20;;;;;;5051428;28;20207;-70
2024/02/29 00:48:53;;;;;;;3.50;3.20;;;21.10;55.10;;;;;;5051316;28;20179;-71
2024/02/29 00:51:19;;;;;;;3.50;3.20;;;21.10;55.20;;;;;;5051244;28;20171;-70
2024/02/29 00:53:45;;;;;;;3.50;2.70;;;21.10;55.10;;;;;;5051169;28;20205;-70
2024/02/29 00:56:10;;;;;;;3.60;3.30;;;21.10;55.20;;;;;;5051266;28;20782;-71
2024/02/29 00:58:36;;;;;;;3.07;2.87;;;21.10;55.20;;;;;;5051396;28;20186;-70
2024/02/29 01:01:02;;;;;;;3.40;3.10;;;21.10;55.20;;;;;;5051093;28;20248;-70
2024/02/29 01:03:27;;;;;;;4.40;3.93;;;21.10;55.20;;;;;;5051113;28;20282;-71
2024/02/29 01:05:53;;;;;;;3.30;3.00;;;21.10;55.20;;;;;;5050990;28;20489;-70
2024/02/29 01:08:19;;;;;;;3.70;3.30;;;21.10;55.20;;;;;;5050991;28;20167;-71
2024/02/29 01:10:47;;;;;;;4.70;3.67;;;21.10;55.20;;;;;;5050965;28;20431;-71
2024/02/29 01:13:12;;;;;;;3.63;3.03;;;21.10;55.10;;;;;;5050848;28;20197;-69
2024/02/29 01:15:38;;;;;;;3.30;3.00;;;21.10;55.20;;;;;;5050707;28;20489;-71
2024/02/29 01:18:05;;;;;;;3.27;2.97;;;21.10;55.20;;;;;;5050682;28;20696;-69
2024/02/29 01:20:32;;;;;;;3.80;3.50;;;21.10;55.20;;;;;;5050710;28;20170;-71
2024/02/29 01:22:58;;;;;;;4.40;3.63;;;21.10;55.20;;;;;;5050655;28;20432;-69
2024/02/29 01:25:23;;;;;;;3.70;3.30;;;21.10;55.20;;;;;;5050592;28;20780;-70
2024/02/29 01:27:50;;;;;;;3.60;3.30;;;21.10;55.20;;;;;;5050592;28;20520;-70
2024/02/29 01:30:16;;;;;;;4.33;3.23;;;21.10;55.20;;;;;;5050571;28;20174;-71
2024/02/29 01:32:42;;;;;;;3.30;3.00;;;21.10;55.20;;;;;;5050500;28;20433;-70
2024/02/29 01:35:08;;;;;;;3.50;3.20;;;21.10;55.20;;;;;;5050538;28;20203;-70
2024/02/29 01:37:34;;;;;;;3.77;3.37;;;21.10;55.20;;;;;;5050337;28;20199;-70
2024/02/29 01:40:00;;;;;;;3.83;3.40;;;21.10;55.20;;;;;;5050420;28;20460;-71
2024/02/29 01:42:25;;;;;;;3.30;3.00;;;21.10;55.20;;;;;;5050467;28;20193;-71
2024/02/29 01:44:55;;;;;;;3.40;2.80;;;21.10;55.20;;;;;;5050416;28;20198;-68
2024/02/29 01:47:26;;;;;;;3.50;3.20;;;21.10;55.20;;;;;;5050445;28;20284;-70
2024/02/29 01:49:56;;;;;;;3.30;3.00;;;21.10;55.10;;;;;;5050287;28;20413;-71
2024/02/29 01:52:25;;;;;;;3.50;3.20;;;21.10;55.20;;;;;;5050229;28;20401;-71
2024/02/29 01:54:50;;;;;;;2.93;2.73;;;21.10;55.20;;;;;;5050333;28;20405;-70
2024/02/29 01:57:16;;;;;;;6.03;3.60;;;21.10;55.20;;;;;;5050410;28;20789;-69
2024/02/29 01:59:42;;;;;;;4.00;3.30;;;21.10;55.20;;;;;;5050300;28;20288;-70
2024/02/29 02:02:08;;;;;;;3.03;2.73;;;21.10;55.20;;;;;;5050186;28;20171;-69
2024/02/29 02:04:34;;;;;;;4.20;3.30;;;21.10;55.20;;;;;;5050168;28;20409;-70
2024/02/29 02:07:02;;;;;;;4.83;3.23;;;21.10;55.20;;;;;;5050132;28;20210;-71
2024/02/29 02:09:28;;;;;;;3.30;3.00;;;21.10;55.20;;;;;;5050201;28;20206;-70
2024/02/29 02:11:55;;;;;;;3.77;3.37;;;21.10;55.20;;;;;;5050114;28;21015;-70
2024/02/29 02:14:21;;;;;;;3.00;2.80;;;21.10;55.20;;;;;;5049992;28;20440;-69
2024/02/29 02:16:48;;;;;;;3.43;3.13;;;21.10;55.20;;;;;;5053079;28;20453;-70
2024/02/29 02:19:16;;;;;;;4.17;3.07;;;21.10;55.20;;;;;;5054095;28;20556;-70
2024/02/29 02:21:43;;;;;;;3.10;2.80;;;21.10;55.20;;;;;;5052895;28;20482;-71
2024/02/29 02:24:09;;;;;;;3.40;3.00;;;21.10;55.20;;;;;;5053877;28;20898;-70
2024/02/29 02:26:34;;;;;;;3.20;3.00;;;21.10;55.20;;;;;;5054026;28;20406;-70
2024/02/29 02:29:01;;;;;;;3.43;2.97;;;21.10;55.20;;;;;;5054033;28;20462;-70
2024/02/29 02:31:29;;;;;;;3.67;3.37;;;21.10;55.20;;;;;;5054143;28;20260;-71
2024/02/29 02:33:55;;;;;;;3.40;2.90;;;21.10;55.20;;;;;;5053751;28;21213;-70
2024/02/29 02:36:20;;;;;;;3.50;2.93;;;21.10;55.20;;;;;;5053768;28;20417;-68
2024/02/29 02:38:46;;;;;;;3.60;3.30;;;21.10;55.20;;;;;;5053853;28;20547;-71
2024/02/29 02:41:11;;;;;;;3.60;3.30;;;21.10;55.20;;;;;;5053851;28;20205;-69
2024/02/29 02:43:37;;;;;;;3.00;2.70;;;21.10;55.20;;;;;;5054011;28;20218;-71
2024/02/29 02:46:03;;;;;;;3.07;2.87;;;21.10;55.30;;;;;;5053741;28;20731;-69
2024/02/29 02:48:28;;;;;;;3.43;3.13;;;21.10;55.20;;;;;;5053811;28;20711;-70
2024/02/29 02:50:54;;;;;;;3.70;3.13;;;21.10;55.20;;;;;;5053646;28;20186;-70
2024/02/29 02:53:19;;;;;;;3.20;2.90;;;21.10;55.20;;;;;;5053713;28;20285;-71
2024/02/29 02:55:45;;;;;;;2.77;2.57;;;21.10;55.20;;;;;;5053863;28;20186;-70
2024/02/29 02:58:11;;;;;;;3.43;3.13;;;21.10;55.20;;;;;;5053430;28;20245;-70
2024/02/29 03:00:36;;;;;;;3.10;2.80;;;21.10;55.20;;;;;;5053433;28;20221;-70
2024/02/29 03:03:02;;;;;;;3.63;3.10;;;21.10;55.20;;;;;;5053703;28;20199;-70
2024/02/29 03:05:28;;;;;;;3.30;2.83;;;21.00;55.20;;;;;;5053419;28;20182;-70
2024/02/29 03:07:53;;;;;;;3.17;2.87;;;21.00;55.10;;;;;;5053261;28;20500;-70
2024/02/29 03:10:19;;;;;;;2.97;2.63;;;21.00;55.20;;;;;;5053392;28;20248;-71
2024/02/29 03:12:47;;;;;;;3.40;3.10;;;21.00;55.20;;;;;;5051833;28;20285;-70
2024/02/29 03:15:12;;;;;;;3.37;3.00;;;21.00;55.20;;;;;;5053314;28;20191;-70
2024/02/29 03:17:38;;;;;;;3.97;3.27;;;21.10;55.20;;;;;;5052957;28;20504;-70
2024/02/29 03:20:11;;;;;;;3.13;2.83;;;21.00;55.20;;;;;;5051808;28;20225;-70
2024/02/29 03:22:40;;;;;;;2.73;2.53;;;21.00;55.20;;;;;;5051997;28;20205;-70
2024/02/29 03:25:06;;;;;;;4.23;2.60;;;21.00;55.20;;;;;;5053255;28;20760;-70
2024/02/29 03:27:32;;;;;;;2.80;2.60;;;21.00;55.20;;;;;;5053245;28;20908;-70
2024/02/29 03:30:02;;;;;;;3.00;2.70;;;21.00;55.20;;;;;;5052958;28;20409;-70
2024/02/29 03:32:28;;;;;;;3.10;2.80;;;21.00;55.10;;;;;;5052958;28;20187;-71
2024/02/29 03:34:53;;;;;;;3.67;3.07;;;21.00;55.70;;;;;;5052906;28;20793;-70
2024/02/29 03:37:19;;;;;;;3.53;3.23;;;21.00;55.20;;;;;;5052782;28;20211;-70
2024/02/29 03:39:45;;;;;;;2.93;2.50;;;21.00;55.20;;;;;;5052992;28;20167;-70
2024/02/29 03:42:11;;;;;;;3.07;2.87;;;21.00;55.20;;;;;;5052903;28;20171;-70
2024/02/29 03:44:37;;;;;;;3.00;2.53;;;21.00;55.20;;;;;;5052858;28;20246;-70
2024/02/29 03:47:04;;;;;;;2.97;2.67;;;21.00;55.20;;;;;;5052788;28;20501;-70
2024/02/29 03:49:29;;;;;;;3.17;2.80;;;21.00;55.20;;;;;;5052553;28;20174;-68
2024/02/29 03:51:55;;;;;;;3.30;3.00;;;21.00;55.20;;;;;;5052553;28;20467;-70
2024/02/29 03:54:20;;;;;;;2.67;2.47;;;21.00;55.20;;;;;;5052253;28;20199;-71
2024/02/29 03:56:47;;;;;;;3.47;3.17;;;21.00;55.20;;;;;;5050834;28;20205;-70
2024/02/29 03:59:12;;;;;;;3.40;3.10;;;21.00;55.20;;;;;;5052423;28;20166;-70
2024/02/29 04:01:38;;;;;;;3.10;2.77;;;21.00;55.20;;;;;;5052711;28;20405;-70
2024/02/29 04:04:04;;;;;;;3.40;3.10;;;21.00;55.20;;;;;;5052243;28;20190;-69
2024/02/29 04:06:29;;;;;;;3.40;3.10;;;21.00;55.20;;;;;;5050961;28;20183;-71
2024/02/29 04:08:55;;;;;;;3.50;2.63;;;21.00;55.20;;;;;;5052412;28;20262;-70
2024/02/29 04:11:22;;;;;;;3.37;2.90;;;21.00;55.20;;;;;;5052490;28;20170;-71
2024/02/29 04:13:47;;;;;;;2.67;2.47;;;21.00;55.20;;;;;;5052035;28;20426;-70
2024/02/29 04:16:13;;;;;;;3.80;3.40;;;21.00;55.20;;;;;;5052241;28;20516;-71
2024/02/29 04:18:39;;;;;;;2.73;2.50;;;21.00;55.20;;;;;;5051835;28;20207;-70
2024/02/29 04:21:05;;;;;;;2.93;2.70;;;21.00;55.20;;;;;;5052140;28;20412;-71
2024/02/29 04:23:31;;;;;;;3.20;2.90;;;21.00;55.20;;;;;;5051973;28;20433;-71
2024/02/29 04:25:56;;;;;;;3.07;2.80;;;21.00;55.20;;;;;;5051956;28;20171;-70
2024/02/29 04:28:22;;;;;;;2.37;2.10;;;21.00;55.20;;;;;;5051943;28;20685;-70
2024/02/29 04:30:47;;;;;;;3.03;2.70;;;21.00;55.20;;;;;;5051949;28;20218;-71
2024/02/29 04:33:13;;;;;;;2.53;2.33;;;21.00;55.20;;;;;;5051751;28;20202;-70
2024/02/29 04:35:39;;;;;;;2.93;2.57;;;21.00;55.20;;;;;;5052101;28;20645;-69
2024/02/29 04:38:05;;;;;;;3.33;3.00;;;20.90;55.20;;;;;;5051517;28;20716;-71
2024/02/29 04:40:30;;;;;;;2.57;2.30;;;21.00;55.20;;;;;;5051867;28;20669;-69
2024/02/29 04:42:56;;;;;;;3.00;2.80;;;20.90;55.10;;;;;;5051686;28;20187;-71
2024/02/29 04:45:23;;;;;;;2.80;2.60;;;21.00;55.20;;;;;;5050579;28;20737;-70
2024/02/29 04:47:51;;;;;;;2.50;2.30;;;21.00;55.30;;;;;;5051569;28;20171;-70
2024/02/29 04:50:16;;;;;;;3.00;2.63;;;20.90;55.20;;;;;;5051534;28;20488;-70
2024/02/29 04:52:42;;;;;;;3.07;2.77;;;20.90;55.10;;;;;;5051651;28;20528;-70
2024/02/29 04:55:08;;;;;;;2.37;2.17;;;21.00;55.30;;;;;;5050342;28;20532;-70
2024/02/29 04:57:34;;;;;;;3.00;2.67;;;20.90;55.20;;;;;;5051795;28;20636;-70
2024/02/29 05:00:01;;;;;;;3.47;3.17;;;20.90;55.10;;;;;;5051417;28;20772;-71
2024/02/29 05:02:26;;;;;;;3.10;2.70;;;20.90;55.10;;;;;;5051352;28;20487;-70
2024/02/29 05:04:52;;;;;;;2.77;2.47;;;20.90;55.20;;;;;;5051375;28;20529;-70
2024/02/29 05:07:18;;;;;;;2.73;2.53;;;20.90;55.10;;;;;;5051308;28;20178;-70
2024/02/29 05:09:44;;;;;;;2.60;2.40;;;21.00;55.70;;;;;;5049921;28;20451;-70
2024/02/29 05:12:09;;;;;;;2.60;2.40;;;21.00;55.20;;;;;;5051321;28;20171;-71
2024/02/29 05:14:35;;;;;;;2.90;2.70;;;21.00;55.20;;;;;;5051398;28;20760;-70
2024/02/29 05:17:01;;;;;;;3.03;2.73;;;21.00;55.20;;;;;;5050919;28;20689;-71
2024/02/29 05:19:26;;;;;;;3.30;3.00;;;21.00;55.20;;;;;;5051226;28;20191;-70
2024/02/29 05:21:52;;;;;;;3.00;2.70;;;21.00;55.20;;;;;;5049701;28;20336;-71
2024/02/29 05:24:18;;;;;;;2.83;2.43;;;21.00;55.20;;;;;;5051053;28;20222;-70
2024/02/29 05:26:44;;;;;;;3.00;2.80;;;21.00;55.20;;;;;;5051004;28;20195;-70
2024/02/29 05:29:10;;;;;;;2.60;2.40;;;21.00;55.10;;;;;;5050796;28;20402;-71
2024/02/29 05:31:37;;;;;;;5.23;2.33;;;21.00;55.20;;;;;;5051126;28;20420;-70
2024/02/29 05:34:02;;;;;;;2.53;2.33;;;21.00;55.10;;;;;;5050803;28;20670;-71
2024/02/29 05:36:28;;;;;;;2.60;2.40;;;21.00;55.10;;;;;;5050689;28;20512;-69
2024/02/29 05:38:54;;;;;;;2.90;2.53;;;21.00;55.70;;;;;;5049331;28;20638;-70
2024/02/29 05:41:20;;;;;;;3.13;2.83;;;21.00;55.10;;;;;;5050580;28;20554;-71
2024/02/29 05:43:46;;;;;;;2.10;1.90;;;21.00;55.10;;;;;;5051037;28;20426;-70
2024/02/29 05:46:12;;;;;;;2.13;1.93;;;21.00;55.20;;;;;;5050777;28;20776;-71
2024/02/29 05:48:38;;;;;;;2.20;2.00;;;21.00;55.10;;;;;;5050620;28;20978;-70
2024/02/29 05:51:04;;;;;;;2.80;2.60;;;21.00;55.10;;;;;;5049790;28;20488;-71
2024/02/29 05:53:30;;;;;;;2.90;2.60;;;21.00;55.10;;;;;;5050529;28;20183;-70
2024/02/29 05:55:55;;;;;;;2.53;2.33;;;21.00;55.70;;;;;;5050549;28;20417;-71
2024/02/29 05:58:21;;;;;;;2.67;2.47;;;21.00;55.10;;;;;;5050530;28;20203;-70
2024/02/29 06:00:46;;;;;;;2.87;2.67;;;21.10;55.30;;;;;;5049269;28;20673;-70
2024/02/29 06:03:12;;;;;;;2.40;2.20;;;21.00;55.10;;;;;;5050430;28;20187;-70
2024/02/29 06:05:38;;;;;;;3.00;2.70;;;21.00;55.10;;;;;;5050564;28;20221;-70
2024/02/29 06:08:04;;;;;;;3.00;2.70;;;21.00;55.10;;;;;;5050791;28;20192;-70
2024/02/29 06:10:30;;;;;;;2.57;2.37;;;21.00;55.10;;;;;;5050542;28;21022;-70
2024/02/29 06:12:56;;;;;;;3.00;2.70;;;21.00;55.10;;;;;;5048936;28;20914;-70
2024/02/29 06:15:21;;;;;;;2.43;2.23;;;21.00;55.10;;;;;;5050594;28;20500;-69
2024/02/29 06:17:49;;;;;;;2.70;2.40;;;21.00;55.10;;;;;;5050128;28;20273;-70
2024/02/29 06:20:15;;;;;;;3.00;2.80;;;21.00;55.10;;;;;;5050371;28;20153;-69
2024/02/29 06:22:41;;;;;;;2.90;2.57;;;21.00;55.10;;;;;;5050106;28;20430;-68
2024/02/29 06:25:08;;;;;;;3.27;2.97;;;21.00;55.20;;;;;;5050547;28;20171;-69
2024/02/29 06:27:34;;;;;;;2.30;2.10;;;21.00;55.20;;;;;;5051354;28;20416;-70
2024/02/29 06:30:00;;;;;;;2.77;2.57;;;21.00;55.20;;;;;;5050295;28;20908;-70
2024/02/29 06:32:25;;;;;;;2.57;2.37;;;21.10;55.30;;;;;;5049136;28;20190;-69
2024/02/29 06:34:51;;;;;;;3.93;2.30;;;21.10;55.30;;;;;;5050750;28;20202;-68
2024/02/29 06:37:16;;;;;;;3.43;2.60;;;21.10;55.30;;;;;;5050380;28;20195;-70
2024/02/29 06:39:42;;;;;;;2.83;2.63;;;21.10;55.20;;;;;;5050744;28;20232;-70
2024/02/29 06:42:08;;;;;;;3.20;2.50;;;21.10;55.20;;;;;;5050455;28;20255;-69
2024/02/29 06:44:33;;;;;;;2.60;2.40;;;21.10;55.20;;;;;;5050648;28;20178;-70
2024/02/29 06:46:59;;;;;;;2.40;2.17;;;21.20;55.30;;;;;;5050361;28;20218;-69
2024/02/29 06:49:24;;;;;;;2.70;2.50;;;21.20;55.30;;;;;;5050575;28;20209;-69
2024/02/29 06:51:51;;;;;;;3.13;2.40;;;21.20;55.20;;;;;;5050488;28;20219;-70
2024/02/29 06:54:17;;;;;;;3.90;2.50;;;21.20;55.20;;;;;;5050523;28;20199;-70
2024/02/29 06:56:44;;;;;;;2.83;2.60;;;21.20;55.20;;;;;;5050554;28;20471;-70
2024/02/29 06:59:09;;;;;;;3.93;2.70;;;21.20;55.20;;;;;;5050740;28;20429;-69
2024/02/29 07:01:36;;;;;;;3.40;2.47;;;21.20;55.20;;;;;;5051665;28;20405;-68
2024/02/29 07:04:02;;;;;;;2.60;2.40;;;21.30;55.20;;;;;;5054080;28;20183;-70
2024/02/29 07:06:28;;;;;;;3.03;2.30;;;21.30;55.20;;;;;;5054191;28;21192;-70
2024/02/29 07:08:54;;;;;;;2.93;2.63;;;21.30;55.20;;;;;;5054152;28;20409;-70
2024/02/29 07:11:20;;;;;;;2.73;2.50;;;21.30;55.20;;;;;;5054473;28;20179;-70
2024/02/29 07:13:46;;;;;;;3.00;2.70;;;21.30;55.20;;;;;;5053585;28;20984;-69
2024/02/29 07:16:13;;;;;;;4.00;2.70;;;21.30;55.20;;;;;;5053907;28;20175;-70
2024/02/29 07:18:38;;;;;;;2.60;2.40;;;21.30;55.20;;;;;;5053577;28;21310;-69
2024/02/29 07:21:04;;;;;;;2.70;2.00;;;21.30;55.20;;;;;;5053585;28;20420;-70
2024/02/29 07:23:31;;;;;;;2.60;2.30;;;21.30;55.20;;;;;;5053622;28;20195;-68
2024/02/29 07:25:58;;;;;;;2.60;2.27;;;21.30;55.70;;;;;;5053635;28;20592;-68
2024/02/29 07:28:26;;;;;;;2.40;2.03;;;21.30;55.10;;;;;;5053892;28;20406;-70
2024/02/29 07:30:51;;;;;;;2.43;2.23;;;21.30;55.10;;;;;;5053678;28;20413;-69
2024/02/29 07:33:17;;;;;;;2.40;2.20;;;21.30;55.10;;;;;;5053467;28;20647;-70
2024/02/29 07:35:42;;;;;;;2.83;2.63;;;21.40;55.20;;;;;;5053241;28;20182;-69
2024/02/29 07:38:08;;;;;;;2.97;2.53;;;21.30;55.10;;;;;;5053309;28;20201;-69
2024/02/29 07:40:34;;;;;;;2.63;2.43;;;21.30;55.10;;;;;;5052246;28;20647;-69
2024/02/29 07:43:00;;;;;;;4.47;2.60;;;21.30;55.10;;;;;;5053301;28;20273;-70
2024/02/29 07:45:26;;;;;;;2.60;2.23;;;21.40;55.20;;;;;;5053846;28;20258;-69
2024/02/29 07:47:51;;;;;;;2.20;2.00;;;21.40;55.20;;;;;;5053200;28;20500;-70
2024/02/29 07:50:17;;;;;;;3.27;2.60;;;21.40;55.10;;;;;;5053491;28;20207;-70
2024/02/29 07:52:43;;;;;;;2.90;2.13;;;21.40;55.20;;;;;;5052888;28;20618;-69
2024/02/29 07:55:14;;;;;;;2.90;2.17;;;21.40;55.20;;;;;;5053005;28;20440;-70
2024/02/29 07:57:40;;;;;;;2.30;2.10;;;21.40;55.20;;;;;;5052996;28;21031;-70
2024/02/29 08:00:07;;;;;;;3.23;2.30;;;21.40;55.20;;;;;;5053111;28;20418;-69
2024/02/29 08:02:33;;;;;;;3.00;2.30;;;21.40;55.20;;;;;;5053057;28;20821;-70
2024/02/29 08:04:59;;;;;;;3.03;2.77;;;21.40;55.20;;;;;;5052953;28;20397;-70
2024/02/29 08:07:25;;;;;;;5.60;2.50;;;21.40;55.20;;;;;;5051709;28;20959;-69
2024/02/29 08:09:50;;;;;;;2.40;2.20;;;21.40;55.20;;;;;;5052724;28;20441;-71
2024/02/29 08:12:17;;;;;;;2.90;2.27;;;21.40;55.20;;;;;;5052395;28;20190;-69
2024/02/29 08:14:44;;;;;;;2.70;2.40;;;21.40;55.20;;;;;;5052100;28;20193;-70
2024/02/29 08:17:10;;;;;;;3.17;2.90;;;21.40;55.20;;;;;;5052570;28;20492;-68
2024/02/29 08:19:36;;;;;;;2.10;2.00;;;21.40;55.20;;;;;;5052562;28;20503;-70
2024/02/29 08:22:02;;;;;;;2.50;2.30;;;21.40;55.20;;;;;;5052722;28;20213;-69
2024/02/29 08:24:27;;;;;;;2.73;2.47;;;21.40;55.20;;;;;;5052441;28;20520;-70
2024/02/29 08:26:53;;;;;;;2.70;1.97;;;21.40;55.20;;;;;;5052260;28;20552;-69
2024/02/29 08:29:18;;;;;;;2.10;1.90;;;21.40;55.20;;;;;;5052567;28;20175;-70
2024/02/29 08:31:44;;;;;;;2.50;2.30;;;21.40;55.30;;;;;;5052174;28;20170;-70
2024/02/29 08:34:10;;;;;;;2.67;2.47;;;21.40;55.30;;;;;;5052078;28;20203;-69
2024/02/29 08:36:36;;;;;;;2.60;2.40;;;21.40;55.30;;;;;;5052303;28;20175;-69
2024/02/29 08:39:02;;;;;;;3.00;2.43;;;21.40;55.30;;;;;;5052342;28;20409;-70
2024/02/29 08:41:28;;;;;;;2.70;2.47;;;21.40;55.90;;;;;;5052490;28;20409;-70
2024/02/29 08:43:53;;;;;;;3.10;2.80;;;21.40;55.30;;;;;;5050399;28;20273;-70
2024/02/29 08:46:19;;;;;;;2.83;2.03;;;21.40;55.30;;;;;;5051993;28;20177;-69
2024/02/29 08:48:45;;;;;;;2.70;2.50;;;21.40;55.30;;;;;;5051764;28;20258;-70
2024/02/29 08:51:11;;;;;;;2.60;2.20;;;21.40;55.30;;;;;;5051934;28;20163;-68
2024/02/29 08:53:37;;;;;;;2.47;2.27;;;21.40;55.30;;;;;;5051716;28;20924;-70
2024/02/29 08:56:03;;;;;;;2.00;1.80;;;21.40;55.30;;;;;;5050285;28;20206;-69
2024/02/29 08:58:29;;;;;;;2.40;2.20;;;21.40;55.30;;;;;;5051595;28;20199;-69
2024/02/29 09:00:54;;;;;;;2.60;2.40;;;21.40;55.30;;;;;;5051982;28;20482;-69
2024/02/29 09:03:20;;;;;;;2.60;2.30;;;21.40;55.30;;;;;;5051638;28;20421;-70
2024/02/29 09:05:46;;;;;;;2.20;2.00;;;21.40;55.30;;;;;;5051717;28;20186;-70
2024/02/29 09:08:12;;;;;;;3.60;2.90;;;21.40;55.30;;;;;;5051521;28;20202;-68
2024/02/29 09:10:37;;;;;;;2.80;2.40;;;21.40;55.30;;;;;;5051696;28;20238;-68
2024/02/29 09:13:04;;;;;;;2.70;2.20;;;21.40;55.30;;;;;;5049978;28;20264;-71
2024/02/29 09:15:30;;;;;;;3.03;2.30;;;21.40;55.40;;;;;;5051262;28;20187;-70
2024/02/29 09:17:56;;;;;;;2.60;2.40;;;21.40;55.40;;;;;;5051455;28;20523;-70
2024/02/29 09:20:22;;;;;;;2.10;1.90;;;21.40;55.40;;;;;;5051693;28;20836;-69
2024/02/29 09:22:49;;;;;;;2.60;2.00;;;21.40;55.40;;;;;;5051259;28;20524;-69
2024/02/29 09:25:15;;;;;;;2.40;2.20;;;21.40;55.40;;;;;;5051073;28;20316;-69
2024/02/29 09:27:41;;;;;;;2.27;2.07;;;21.40;55.40;;;;;;5051596;28;20428;-68
2024/02/29 09:30:07;;;;;;;2.23;2.03;;;21.40;55.40;;;;;;5051281;28;20414;-67
2024/02/29 09:32:32;;;;;;;2.50;2.30;;;21.40;55.40;;;;;;5051699;28;20187;-70
2024/02/29 09:34:58;;;;;;;2.30;2.10;;;21.40;55.40;;;;;;5051175;28;20262;-69
2024/02/29 09:37:23;;;;;;;2.20;2.00;;;21.40;55.40;;;;;;5049692;28;20617;-68
2024/02/29 09:39:49;;;;;;;2.63;2.30;;;21.40;55.40;;;;;;5051087;28;20175;-70
2024/02/29 09:42:15;;;;;;;2.87;2.20;;;21.40;55.40;;;;;;5051252;28;20171;-69
2024/02/29 09:44:44;;;;;;;2.80;2.60;;;21.40;55.40;;;;;;5049862;28;20195;-69
2024/02/29 09:47:12;;;;;;;2.30;2.07;;;21.40;55.40;;;;;;5050903;28;20514;-71
2024/02/29 09:49:38;;;;;;;5.73;2.77;;;21.40;55.40;;;;;;5050964;28;20960;-68
2024/02/29 09:52:06;;;;;;;2.70;2.13;;;21.40;55.40;;;;;;5051037;28;20500;-70
2024/02/29 09:54:33;;;;;;;2.63;2.37;;;21.40;55.40;;;;;;5051187;28;20206;-70
2024/02/29 09:57:00;;;;;;;2.50;2.30;;;21.40;55.40;;;;;;5051027;28;20484;-70
2024/02/29 09:59:27;;;;;;;2.17;1.97;;;21.40;55.40;;;;;;5050715;28;20409;-70
2024/02/29 10:01:52;;;;;;;2.23;1.80;;;21.40;55.40;;;;;;5050848;28;20402;-70
2024/02/29 10:04:18;;;;;;;2.13;1.93;;;21.40;55.40;;;;;;5050830;28;20425;-67
2024/02/29 10:06:44;;;;;;;2.27;2.07;;;21.40;55.40;;;;;;5050746;28;20251;-69
2024/02/29 10:09:10;;;;;;;2.30;2.03;;;21.40;55.40;;;;;;5050786;28;20427;-70
2024/02/29 10:11:42;;;;;;;2.10;1.90;;;21.40;56.00;;;;;;5049394;28;20179;-69
2024/02/29 10:14:28;;;;;;;2.13;1.90;;;21.40;55.50;;;;;;5050798;28;20429;-70
2024/02/29 10:16:55;;;;;;;2.17;1.97;;;21.40;55.40;;;;;;5050803;28;20850;-69
2024/02/29 10:19:21;;;;;;;2.23;2.03;;;21.40;55.50;;;;;;5050383;28;20554;-70
2024/02/29 10:21:48;;;;;;;2.30;2.00;;;21.40;55.50;;;;;;5050627;28;20462;-70
2024/02/29 10:24:13;;;;;;;2.10;1.90;;;21.40;55.50;;;;;;5050811;28;20436;-70
2024/02/29 10:26:39;;;;;;;2.30;2.10;;;21.40;55.50;;;;;;5050954;28;20496;-69
2024/02/29 10:29:10;;;;;;;2.73;2.00;;;21.40;55.50;;;;;;5050627;28;20195;-70
2024/02/29 10:31:35;;;;;;;2.20;2.00;;;21.40;55.50;;;;;;5050385;28;20803;-70
2024/02/29 10:34:01;;;;;;;2.60;1.97;;;21.40;55.50;;;;;;5050541;28;20433;-71
2024/02/29 10:36:27;;;;;;;2.07;1.87;;;21.40;55.50;;;;;;5051242;28;20175;-70
2024/02/29 10:38:55;;;;;;;2.57;2.30;;;21.40;55.50;;;;;;5054467;28;20203;-69
2024/02/29 10:41:21;;;;;;;1.90;1.60;;;21.40;55.50;;;;;;5054365;28;20289;-70
2024/02/29 10:43:50;;;;;;;1.90;1.70;;;21.40;55.50;;;;;;5054329;28;20486;-70
2024/02/29 10:46:19;;;;;;;2.20;1.80;;;21.40;55.50;;;;;;5054192;28;20415;-70
2024/02/29 10:48:55;;;;;;;2.47;2.23;;;21.30;55.40;;;;;;5054211;28;20444;-70
2024/02/29 10:51:32;;;;;;;2.83;2.13;;;21.40;55.50;;;;;;5054006;28;20408;-70
2024/02/29 10:54:19;;;;;;;2.23;2.03;;;21.40;55.50;;;;;;5054431;28;20487;-69
2024/02/29 10:56:49;;;;;;;2.20;2.00;;;21.40;55.50;;;;;;5054360;28;20478;-69
2024/02/29 10:59:19;;;;;;;2.27;2.07;;;21.30;55.50;;;;;;5054222;28;20412;-69
2024/02/29 11:01:46;;;;;;;2.30;2.10;;;21.30;55.50;;;;;;5054276;28;20498;-69
2024/02/29 11:04:14;;;;;;;2.20;2.00;;;21.30;55.50;;;;;;5054331;28;20429;-70
2024/02/29 11:06:46;;;;;;;2.10;1.90;;;21.30;55.50;;;;;;5054168;28;20536;-69
2024/02/29 11:09:16;;;;;;;2.50;1.87;;;21.30;55.50;;;;;;5052406;28;20406;-69
2024/02/29 11:11:47;;;;;;;2.30;2.10;;;21.30;55.40;;;;;;5053875;28;20405;-70
2024/02/29 11:14:13;;;;;;;2.47;2.27;;;21.30;55.50;;;;;;5053719;28;20491;-70
2024/02/29 11:16:45;;;;;;;2.10;1.90;;;21.30;55.50;;;;;;5053937;28;20409;-69
2024/02/29 11:19:18;;;;;;;1.77;1.67;;;21.30;55.40;;;;;;5053207;28;20433;-69
2024/02/29 11:21:45;;;;;;;2.10;1.77;;;21.30;55.50;;;;;;5052111;28;20441;-69
2024/02/29 11:24:21;;;;;;;2.30;1.80;;;21.30;55.50;;;;;;5053348;28;20960;-70
2024/02/29 11:26:57;;;;;;;2.20;1.73;;;21.30;55.50;;;;;;5053386;28;20576;-70
2024/02/29 11:29:22;;;;;;;2.30;2.00;;;21.30;55.50;;;;;;5053404;28;20409;-70
2024/02/29 11:31:56;;;;;;;2.20;2.00;;;21.30;55.50;;;;;;5053691;28;20436;-69
2024/02/29 11:34:22;;;;;;;2.13;1.60;;;21.30;55.50;;;;;;5053173;28;20248;-69
2024/02/29 11:36:49;;;;;;;2.27;1.77;;;21.30;55.50;;;;;;5053283;28;20500;-70
2024/02/29 11:39:22;;;;;;;1.83;1.73;;;21.30;55.50;;;;;;5053309;28;20413;-68
2024/02/29 11:41:48;;;;;;;2.13;1.93;;;21.30;55.50;;;;;;5053399;28;20394;-71
2024/02/29 11:44:14;;;;;;;2.57;2.07;;;21.30;55.50;;;;;;5053109;28;20437;-69
2024/02/29 11:46:46;;;;;;;1.93;1.80;;;21.30;55.50;;;;;;5053264;28;20409;-69
2024/02/29 11:49:16;;;;;;;2.23;2.03;;;21.30;55.50;;;;;;5051559;28;20167;-70
2024/02/29 11:51:45;;;;;;;1.53;1.43;;;21.30;55.60;;;;;;5052997;28;20405;-69
2024/02/29 11:54:15;;;;;;;2.57;2.37;;;21.30;56.10;;;;;;5051401;28;20571;-70
2024/02/29 11:56:41;;;;;;;2.00;1.80;;;21.30;55.60;;;;;;5053086;28;20405;-69
2024/02/29 11:59:10;;;;;;;2.43;2.00;;;21.30;55.60;;;;;;5053185;28;20405;-70
2024/02/29 12:01:36;;;;;;;2.03;1.83;;;21.30;55.60;;;;;;5053022;28;20438;-69
2024/02/29 12:04:02;;;;;;;2.20;1.90;;;21.30;55.60;;;;;;5053169;28;20504;-70
2024/02/29 12:06:29;;;;;;;1.90;1.80;;;21.30;55.60;;;;;;5052804;28;20908;-70
2024/02/29 12:08:55;;;;;;;1.90;1.70;;;21.30;55.60;;;;;;5052813;28;20433;-69
2024/02/29 12:11:22;;;;;;;1.87;1.67;;;21.30;55.60;;;;;;5052748;28;20421;-70
2024/02/29 12:13:48;;;;;;;2.13;1.93;;;21.30;55.50;;;;;;5052443;28;20849;-67
2024/02/29 12:16:13;;;;;;;2.00;1.80;;;21.40;55.60;;;;;;5052900;28;20500;-70
2024/02/29 12:18:39;;;;;;;2.27;2.07;;;21.30;55.50;;;;;;5052318;28;20206;-70
2024/02/29 12:21:06;;;;;;;1.97;1.87;;;21.40;55.60;;;;;;5052613;28;20175;-70
2024/02/29 12:23:32;;;;;;;2.40;1.90;;;21.30;55.50;;;;;;5052419;28;20221;-70
2024/02/29 12:26:07;;;;;;;1.90;1.80;;;21.30;55.50;;;;;;5052613;28;20414;-67
2024/02/29 12:28:33;;;;;;;2.00;1.80;;;21.30;55.50;;;;;;5052738;28;20940;-70
2024/02/29 12:30:59;;;;;;;1.73;1.63;;;21.30;55.50;;;;;;5052506;28;20418;-69
2024/02/29 12:33:25;;;;;;;2.20;1.83;;;21.30;55.60;;;;;;5050460;28;20201;-70
2024/02/29 12:35:51;;;;;;;2.60;2.10;;;21.30;55.50;;;;;;5052054;28;20410;-68
2024/02/29 12:38:23;;;;;;;3.07;2.20;;;21.30;55.50;;;;;;5052068;28;20687;-68
2024/02/29 12:40:52;;;;;;;2.40;1.97;;;21.30;55.50;;;;;;5052236;28;20821;-69
2024/02/29 12:43:19;;;;;;;2.20;1.97;;;21.30;55.50;;;;;;5052551;28;20437;-69